Time,TemperatureF,DewpointF,PressureIn,WindDirection,WindDirectionDegrees,WindSpeedMPH,WindSpeedGustMPH,Humidity,HourlyPrecipIn,Conditions,Clouds,dailyrainin,SolarRadiationWatts/m^2,SoftwareType,DateUTC
2013-02-02 00:08:00,41.9,40.8,30.32,NNW,335,0.0,2.0,96,0.00,,,0.00,0,Wunderground v.1.15,2013-02-02 08:08:00,
2013-02-02 00:18:00,41.8,40.7,30.32,NNW,333,1.0,1.0,96,0.00,,,0.00,0,Wunderground v.1.15,2013-02-02 08:18:00,
2013-02-02 00:28:00,41.8,40.7,30.32,NNW,330,1.0,2.0,96,0.00,,,0.00,0,Wunderground v.1.15,2013-02-02 08:28:00,
2013-02-02 00:38:00,41.9,41.1,30.32,NNW,336,1.0,1.0,97,0.00,,,0.00,0,Wunderground v.1.15,2013-02-02 08:38:00,
2013-02-02 00:48:00,42.2,41.4,30.33,WNW,289,1.0,2.0,97,0.00,,,0.00,0,Wunderground v.1.15,2013-02-02 08:48:00,
2013-02-02 00:58:00,42.3,41.5,30.33,WNW,299,2.0,5.0,97,0.00,,,0.00,0,Wunderground v.1.15,2013-02-02 08:58:00,
2013-02-02 01:08:00,42.3,41.5,30.33,WNW,299,1.0,2.0,97,0.00,,,0.00,0,Wunderground v.1.15,2013-02-02 09:08:00,
2013-02-02 01:23:00,42.2,41.4,30.33,NW,325,1.0,4.0,97,0.00,,,0.00,0,Wunderground v.1.15,2013-02-02 09:23:00,
2013-02-02 01:28:00,42.2,41.4,30.33,NW,323,1.0,4.0,97,0.00,,,0.00,0,Wunderground v.1.15,2013-02-02 09:28:00,
2013-02-02 01:38:00,42.2,41.4,30.32,NW,323,1.0,1.0,97,0.00,,,0.00,0,Wunderground v.1.15,2013-02-02 09:38:00,
2013-02-02 01:49:00,42.1,41.3,30.33,WNW,291,1.0,1.0,97,0.00,,,0.00,0,Wunderground v.1.15,2013-02-02 09:49:00,
2013-02-02 01:58:00,42.1,41.3,30.33,NW,306,1.0,1.0,97,0.00,,,0.00,0,Wunderground v.1.15,2013-02-02 09:58:00,
2013-02-02 02:09:00,41.9,41.1,30.33,NNW,344,0.0,0.0,97,0.00,,,0.00,0,Wunderground v.1.15,2013-02-02 10:09:00,
2013-02-02 02:19:00,41.9,41.1,30.33,NNW,343,0.0,0.0,97,0.00,,,0.00,0,Wunderground v.1.15,2013-02-02 10:19:00,
2013-02-02 02:28:00,41.8,41.0,30.33,NNW,347,0.0,0.0,97,0.00,,,0.00,0,Wunderground v.1.15,2013-02-02 10:28:00,
2013-02-02 02:38:00,41.6,40.8,30.33,NNW,339,1.0,1.0,97,0.00,,,0.00,0,Wunderground v.1.15,2013-02-02 10:38:00,
2013-02-02 02:48:00,41.5,40.7,30.33,NNW,340,1.0,1.0,97,0.00,,,0.00,0,Wunderground v.1.15,2013-02-02 10:48:00,
2013-02-02 02:58:00,41.3,40.5,30.33,NNW,339,0.0,3.0,97,0.00,,,0.00,0,Wunderground v.1.15,2013-02-02 10:58:00,
2013-02-02 03:08:00,41.3,40.5,30.32,NNW,340,0.0,1.0,97,0.00,,,0.00,0,Wunderground v.1.15,2013-02-02 11:08:00,
2013-02-02 03:18:00,41.3,40.5,30.31,NNW,339,0.0,4.0,97,0.00,,,0.00,0,Wunderground v.1.15,2013-02-02 11:18:00,
2013-02-02 03:28:00,41.5,41.0,30.31,NNW,340,0.0,1.0,98,0.00,,,0.00,0,Wunderground v.1.15,2013-02-02 11:28:00,
2013-02-02 03:38:00,41.5,41.0,30.31,NNW,340,0.0,1.0,98,0.00,,,0.00,0,Wunderground v.1.15,2013-02-02 11:38:00,
2013-02-02 03:48:00,41.3,40.8,30.31,NW,311,2.0,2.0,98,0.00,,,0.00,0,Wunderground v.1.15,2013-02-02 11:48:00,
2013-02-02 03:58:00,41.3,40.8,30.31,NW,326,1.0,2.0,98,0.00,,,0.00,0,Wunderground v.1.15,2013-02-02 11:58:00,
2013-02-02 04:13:00,41.3,40.8,30.30,NNW,336,1.0,1.0,98,0.00,,,0.00,0,Wunderground v.1.15,2013-02-02 12:13:00,
2013-02-02 04:19:00,41.2,40.7,30.30,NNW,335,1.0,1.0,98,0.00,,,0.00,0,Wunderground v.1.15,2013-02-02 12:19:00,
2013-02-02 04:33:00,40.9,40.1,30.30,NNW,336,0.0,0.0,97,0.00,,,0.00,0,Wunderground v.1.15,2013-02-02 12:33:00,
2013-02-02 04:38:00,40.8,40.0,30.30,NNW,335,0.0,0.0,97,0.00,,,0.00,0,Wunderground v.1.15,2013-02-02 12:38:00,
2013-02-02 04:49:00,40.9,40.1,30.30,NNW,343,1.0,1.0,97,0.00,,,0.00,0,Wunderground v.1.15,2013-02-02 12:49:00,
2013-02-02 04:59:00,41.1,40.3,30.30,NNW,343,1.0,1.0,97,0.00,,,0.00,0,Wunderground v.1.15,2013-02-02 12:59:00,
2013-02-02 05:09:00,41.2,40.4,30.29,NW,312,1.0,1.0,97,0.00,,,0.00,0,Wunderground v.1.15,2013-02-02 13:09:00,
2013-02-02 05:19:00,40.9,40.1,30.28,NW,311,1.0,2.0,97,0.00,,,0.00,0,Wunderground v.1.15,2013-02-02 13:19:00,
2013-02-02 05:28:00,40.8,40.0,30.28,NW,313,1.0,1.0,97,0.00,,,0.00,0,Wunderground v.1.15,2013-02-02 13:28:00,
2013-02-02 05:38:00,40.5,39.7,30.28,NW,315,1.0,1.0,97,0.00,,,0.00,0,Wunderground v.1.15,2013-02-02 13:38:00,
2013-02-02 05:48:00,40.2,39.4,30.28,NW,313,1.0,1.0,97,0.00,,,0.00,0,Wunderground v.1.15,2013-02-02 13:48:00,
2013-02-02 05:58:00,39.9,39.1,30.28,NW,316,2.0,2.0,97,0.00,,,0.00,0,Wunderground v.1.15,2013-02-02 13:58:00,
2013-02-02 06:08:00,39.6,38.8,30.28,NW,319,1.0,2.0,97,0.00,,,0.00,0,Wunderground v.1.15,2013-02-02 14:08:00,
2013-02-02 06:23:00,39.5,39.0,30.28,NW,322,1.0,1.0,98,0.00,,,0.00,0,Wunderground v.1.15,2013-02-02 14:23:00,
2013-02-02 06:28:00,39.6,39.1,30.28,NW,322,0.0,1.0,98,0.00,,,0.00,0,Wunderground v.1.15,2013-02-02 14:28:00,
2013-02-02 06:38:00,39.5,39.0,30.27,NW,322,0.0,0.0,98,0.00,,,0.00,0,Wunderground v.1.15,2013-02-02 14:38:00,
2013-02-02 06:53:00,39.3,38.8,30.27,NW,322,0.0,0.0,98,0.00,,,0.00,0,Wunderground v.1.15,2013-02-02 14:53:00,
2013-02-02 07:03:00,39.3,38.8,30.28,NW,322,0.0,0.0,98,0.00,,,0.00,0,Wunderground v.1.15,2013-02-02 15:03:00,
2013-02-02 07:08:00,39.2,38.7,30.28,NW,322,0.0,1.0,98,0.00,,,0.00,0,Wunderground v.1.15,2013-02-02 15:08:00,
2013-02-02 07:23:00,39.1,38.6,30.27,NW,325,1.0,1.0,98,0.00,,,0.00,0,Wunderground v.1.15,2013-02-02 15:23:00,
2013-02-02 07:29:00,39.1,38.6,30.27,NW,326,1.0,1.0,98,0.00,,,0.00,0,Wunderground v.1.15,2013-02-02 15:29:00,
2013-02-02 07:39:00,39.1,38.6,30.27,NW,325,0.0,0.0,98,0.00,,,0.00,0,Wunderground v.1.15,2013-02-02 15:39:00,
2013-02-02 07:53:00,39.3,39.0,30.27,NW,325,1.0,1.0,99,0.00,,,0.00,7,Wunderground v.1.15,2013-02-02 15:53:00,
2013-02-02 07:59:00,39.3,39.0,30.27,NW,325,1.0,1.0,99,0.00,,,0.00,7,Wunderground v.1.15,2013-02-02 15:59:00,
2013-02-02 08:09:00,39.3,39.0,30.27,NW,325,0.0,0.0,99,0.00,,,0.00,12,Wunderground v.1.15,2013-02-02 16:09:00,
2013-02-02 08:19:00,39.3,39.0,30.27,NW,326,0.0,0.0,99,0.00,,,0.00,16,Wunderground v.1.15,2013-02-02 16:19:00,
2013-02-02 08:28:00,39.5,39.2,30.27,NW,325,0.0,0.0,99,0.00,,,0.00,19,Wunderground v.1.15,2013-02-02 16:28:00,
2013-02-02 08:42:00,39.5,39.2,30.27,NW,325,0.0,0.0,99,0.00,,,0.00,32,Wunderground v.1.15,2013-02-02 16:42:00,
2013-02-02 08:52:00,39.5,39.2,30.28,NW,326,0.0,0.0,99,0.00,,,0.00,40,Wunderground v.1.15,2013-02-02 16:52:00,
2013-02-02 08:58:00,39.5,39.2,30.28,NW,326,0.0,0.0,99,0.00,,,0.00,49,Wunderground v.1.15,2013-02-02 16:58:00,
2013-02-02 09:08:00,39.3,39.0,30.27,NW,325,1.0,1.0,99,0.00,,,0.00,42,Wunderground v.1.15,2013-02-02 17:08:00,
2013-02-02 09:18:00,38.9,38.6,30.27,NW,325,1.0,1.0,99,0.00,,,0.00,51,Wunderground v.1.15,2013-02-02 17:18:00,
2013-02-02 09:28:00,39.1,38.8,30.27,NW,308,1.0,2.0,99,0.00,,,0.00,53,Wunderground v.1.15,2013-02-02 17:28:00,
2013-02-02 09:38:00,39.2,38.9,30.27,NW,308,1.0,2.0,99,0.00,,,0.00,53,Wunderground v.1.15,2013-02-02 17:38:00,
2013-02-02 09:48:00,39.3,39.0,30.28,NW,308,0.0,0.0,99,0.00,,,0.00,62,Wunderground v.1.15,2013-02-02 17:48:00,
2013-02-02 09:58:00,39.3,39.0,30.28,NW,312,1.0,1.0,99,0.00,,,0.00,70,Wunderground v.1.15,2013-02-02 17:58:00,
2013-02-02 10:08:00,39.5,39.2,30.28,NW,322,1.0,2.0,99,0.00,,,0.00,70,Wunderground v.1.15,2013-02-02 18:08:00,
2013-02-02 10:19:00,39.6,39.3,30.28,NW,322,1.0,1.0,99,0.00,,,0.00,79,Wunderground v.1.15,2013-02-02 18:19:00,
2013-02-02 10:29:00,39.8,39.5,30.28,NW,323,2.0,2.0,99,0.00,,,0.00,84,Wunderground v.1.15,2013-02-02 18:29:00,
2013-02-02 10:39:00,39.9,39.6,30.27,NW,323,1.0,1.0,99,0.00,,,0.00,86,Wunderground v.1.15,2013-02-02 18:39:00,
2013-02-02 10:53:00,39.9,39.4,30.27,NNW,347,1.0,1.0,98,0.00,,,0.00,97,Wunderground v.1.15,2013-02-02 18:53:00,
2013-02-02 10:59:00,39.9,39.4,30.27,NNW,347,1.0,2.0,98,0.00,,,0.00,107,Wunderground v.1.15,2013-02-02 18:59:00,
2013-02-02 11:09:00,40.2,39.7,30.27,NNW,344,0.0,1.0,98,0.00,,,0.00,100,Wunderground v.1.15,2013-02-02 19:09:00,
2013-02-02 11:19:00,39.9,39.4,30.27,NW,311,1.0,3.0,98,0.00,,,0.00,128,Wunderground v.1.15,2013-02-02 19:19:00,
2013-02-02 11:32:00,40.2,39.7,30.26,WSW,256,1.0,1.0,98,0.00,,,0.00,135,Wunderground v.1.15,2013-02-02 19:32:00,
2013-02-02 11:42:00,40.3,39.5,30.26,WSW,257,1.0,1.0,97,0.00,,,0.00,123,Wunderground v.1.15,2013-02-02 19:42:00,
2013-02-02 11:48:00,40.6,39.8,30.26,WSW,256,1.0,1.0,97,0.00,,,0.00,121,Wunderground v.1.15,2013-02-02 19:48:00,
2013-02-02 11:58:00,40.6,39.8,30.26,West,280,1.0,3.0,97,0.00,,,0.00,137,Wunderground v.1.15,2013-02-02 19:58:00,
2013-02-02 12:08:00,41.1,40.0,30.25,West,280,1.0,2.0,96,0.00,,,0.00,139,Wunderground v.1.15,2013-02-02 20:08:00,
2013-02-02 12:18:00,41.2,39.9,30.25,West,280,1.0,1.0,95,0.00,,,0.00,143,Wunderground v.1.15,2013-02-02 20:18:00,
2013-02-02 12:28:00,41.2,39.6,30.25,NNW,333,2.0,3.0,94,0.00,,,0.00,151,Wunderground v.1.15,2013-02-02 20:28:00,
2013-02-02 12:38:00,41.2,39.3,30.25,WNW,295,2.0,3.0,93,0.00,,,0.00,148,Wunderground v.1.15,2013-02-02 20:38:00,
2013-02-02 12:48:00,41.6,39.7,30.24,WNW,294,1.0,2.0,93,0.00,,,0.00,121,Wunderground v.1.15,2013-02-02 20:48:00,
2013-02-02 12:58:00,41.5,39.3,30.24,WNW,294,2.0,6.0,92,0.00,,,0.00,137,Wunderground v.1.15,2013-02-02 20:58:00,
2013-02-02 13:08:00,41.8,39.6,30.23,WNW,294,1.0,3.0,92,0.00,,,0.00,123,Wunderground v.1.15,2013-02-02 21:08:00,
2013-02-02 13:18:00,42.1,39.9,30.24,WNW,291,1.0,1.0,92,0.00,,,0.00,107,Wunderground v.1.15,2013-02-02 21:18:00,
2013-02-02 13:28:00,41.9,39.2,30.24,NW,318,1.0,2.0,90,0.00,,,0.00,121,Wunderground v.1.15,2013-02-02 21:28:00,
2013-02-02 13:38:00,42.1,39.4,30.23,NW,325,1.0,3.0,90,0.00,,,0.00,128,Wunderground v.1.15,2013-02-02 21:38:00,
2013-02-02 13:49:00,42.3,39.6,30.23,NW,325,0.0,1.0,90,0.00,,,0.00,118,Wunderground v.1.15,2013-02-02 21:49:00,
2013-02-02 13:59:00,42.8,39.8,30.23,SW,234,0.0,0.0,89,0.00,,,0.00,100,Wunderground v.1.15,2013-02-02 21:59:00,
2013-02-02 14:13:00,43.2,39.9,30.23,SW,234,0.0,0.0,88,0.00,,,0.00,90,Wunderground v.1.15,2013-02-02 22:13:00,
2013-02-02 14:19:00,43.3,40.0,30.22,SW,234,0.0,2.0,88,0.00,,,0.00,90,Wunderground v.1.15,2013-02-02 22:19:00,
2013-02-02 14:32:00,43.2,39.6,30.22,SW,234,0.0,0.0,87,0.00,,,0.00,86,Wunderground v.1.15,2013-02-02 22:32:00,
2013-02-02 14:42:00,43.3,39.7,30.22,SW,236,0.0,0.0,87,0.00,,,0.00,95,Wunderground v.1.15,2013-02-02 22:42:00,
2013-02-02 14:48:00,43.2,39.3,30.22,SW,236,0.0,0.0,86,0.00,,,0.00,90,Wunderground v.1.15,2013-02-02 22:48:00,
2013-02-02 15:02:00,43.2,39.6,30.22,South,176,1.0,1.0,87,0.00,,,0.00,90,Wunderground v.1.15,2013-02-02 23:02:00,
2013-02-02 15:08:00,43.3,39.7,30.22,SSE,161,1.0,1.0,87,0.00,,,0.00,88,Wunderground v.1.15,2013-02-02 23:08:00,
2013-02-02 15:18:00,43.1,39.5,30.22,SE,136,1.0,2.0,87,0.00,,,0.00,74,Wunderground v.1.15,2013-02-02 23:18:00,
2013-02-02 15:28:00,43.1,39.5,30.22,South,189,1.0,1.0,87,0.00,,,0.00,70,Wunderground v.1.15,2013-02-02 23:28:00,
2013-02-02 15:38:00,42.9,39.3,30.22,South,186,1.0,2.0,87,0.00,,,0.00,63,Wunderground v.1.15,2013-02-02 23:38:00,
2013-02-02 15:48:00,42.8,39.2,30.22,South,172,1.0,1.0,87,0.00,,,0.00,65,Wunderground v.1.15,2013-02-02 23:48:00,
2013-02-02 15:58:00,42.6,39.0,30.22,South,169,2.0,4.0,87,0.00,,,0.00,69,Wunderground v.1.15,2013-02-02 23:58:00,
2013-02-02 16:13:00,42.3,39.0,30.21,SSW,206,1.0,2.0,88,0.00,,,0.00,40,Wunderground v.1.15,2013-02-03 00:13:00,
2013-02-02 16:18:00,42.2,38.9,30.21,South,174,2.0,4.0,88,0.00,,,0.00,30,Wunderground v.1.15,2013-02-03 00:18:00,
2013-02-02 16:29:00,42.2,39.2,30.21,South,178,2.0,2.0,89,0.00,,,0.00,30,Wunderground v.1.15,2013-02-03 00:29:00,
2013-02-02 16:39:00,42.1,39.1,30.21,SSE,147,1.0,2.0,89,0.00,,,0.00,19,Wunderground v.1.15,2013-02-03 00:39:00,
2013-02-02 16:53:00,42.2,39.2,30.20,SSE,150,0.0,0.0,89,0.00,,,0.00,14,Wunderground v.1.15,2013-02-03 00:53:00,
2013-02-02 16:59:00,42.2,39.5,30.20,South,169,1.0,1.0,90,0.00,,,0.00,9,Wunderground v.1.15,2013-02-03 00:59:00,
2013-02-02 17:14:00,42.2,39.5,30.20,SSE,151,1.0,1.0,90,0.00,,,0.00,5,Wunderground v.1.15,2013-02-03 01:14:00,
2013-02-02 17:19:00,41.9,39.2,30.20,SSE,154,1.0,1.0,90,0.00,,,0.00,0,Wunderground v.1.15,2013-02-03 01:19:00,
2013-02-02 17:29:00,41.6,38.9,30.20,SSE,168,1.0,3.0,90,0.00,,,0.00,0,Wunderground v.1.15,2013-02-03 01:29:00,
2013-02-02 17:38:00,41.5,38.8,30.20,SSE,160,1.0,3.0,90,0.00,,,0.00,0,Wunderground v.1.15,2013-02-03 01:38:00,
2013-02-02 17:48:00,41.3,38.9,30.20,SSE,160,1.0,1.0,91,0.00,,,0.00,0,Wunderground v.1.15,2013-02-03 01:48:00,
2013-02-02 17:58:00,41.1,38.7,30.20,SSE,162,1.0,2.0,91,0.00,,,0.00,0,Wunderground v.1.15,2013-02-03 01:58:00,
2013-02-02 18:08:00,41.1,39.0,30.21,SSE,164,0.0,1.0,92,0.00,,,0.00,0,Wunderground v.1.15,2013-02-03 02:08:00,
2013-02-02 18:18:00,41.1,39.0,30.21,SSE,164,0.0,0.0,92,0.00,,,0.00,0,Wunderground v.1.15,2013-02-03 02:18:00,
2013-02-02 18:28:00,40.9,38.8,30.21,SSE,162,1.0,1.0,92,0.00,,,0.00,0,Wunderground v.1.15,2013-02-03 02:28:00,
2013-02-02 18:43:00,40.9,38.8,30.21,SSE,162,0.0,0.0,92,0.00,,,0.00,0,Wunderground v.1.15,2013-02-03 02:43:00,
2013-02-02 18:48:00,40.8,38.7,30.21,SSE,162,0.0,1.0,92,0.00,,,0.00,0,Wunderground v.1.15,2013-02-03 02:48:00,
2013-02-02 18:58:00,40.6,38.5,30.21,SSE,165,1.0,1.0,92,0.00,,,0.00,0,Wunderground v.1.15,2013-02-03 02:58:00,
2013-02-02 19:08:00,40.6,38.5,30.21,SSE,165,0.0,0.0,92,0.00,,,0.00,0,Wunderground v.1.15,2013-02-03 03:08:00,
2013-02-02 19:18:00,40.8,38.7,30.21,SSE,161,1.0,1.0,92,0.00,,,0.00,0,Wunderground v.1.15,2013-02-03 03:18:00,
2013-02-02 19:29:00,40.8,38.7,30.21,SSE,161,0.0,1.0,92,0.00,,,0.00,0,Wunderground v.1.15,2013-02-03 03:29:00,
2013-02-02 19:38:00,40.6,38.5,30.21,SSE,161,0.0,0.0,92,0.00,,,0.00,0,Wunderground v.1.15,2013-02-03 03:38:00,
2013-02-02 19:49:00,40.5,38.4,30.22,SSE,161,0.0,0.0,92,0.00,,,0.00,0,Wunderground v.1.15,2013-02-03 03:49:00,
2013-02-02 19:58:00,40.3,38.2,30.22,SSE,161,0.0,0.0,92,0.00,,,0.00,0,Wunderground v.1.15,2013-02-03 03:58:00,
2013-02-02 20:09:00,40.2,38.3,30.22,SSE,161,0.0,0.0,93,0.00,,,0.00,0,Wunderground v.1.15,2013-02-03 04:09:00,
2013-02-02 20:19:00,40.2,38.3,30.21,SSE,161,1.0,1.0,93,0.00,,,0.00,0,Wunderground v.1.15,2013-02-03 04:19:00,
2013-02-02 20:29:00,39.9,38.0,30.21,SE,131,1.0,1.0,93,0.00,,,0.00,0,Wunderground v.1.15,2013-02-03 04:29:00,
2013-02-02 20:38:00,39.8,38.2,30.21,SE,131,1.0,1.0,94,0.00,,,0.00,0,Wunderground v.1.15,2013-02-03 04:38:00,
2013-02-02 20:48:00,39.6,38.0,30.22,SE,131,0.0,0.0,94,0.00,,,0.00,0,Wunderground v.1.15,2013-02-03 04:48:00,
2013-02-02 20:58:00,39.6,38.3,30.22,SE,131,0.0,0.0,95,0.00,,,0.00,0,Wunderground v.1.15,2013-02-03 04:58:00,
2013-02-02 21:08:00,39.6,38.3,30.21,SE,131,0.0,0.0,95,0.00,,,0.00,0,Wunderground v.1.15,2013-02-03 05:08:00,
2013-02-02 21:12:00,39.6,38.3,30.21,SE,131,0.0,0.0,95,0.00,,,0.00,0,Wunderground v.1.15,2013-02-03 05:12:00,
2013-02-02 21:18:00,39.6,38.3,30.21,SE,131,0.0,0.0,95,0.00,,,0.00,0,Wunderground v.1.15,2013-02-03 05:18:00,
2013-02-02 21:28:00,39.6,38.3,30.21,SE,131,0.0,4.0,95,0.00,,,0.00,0,Wunderground v.1.15,2013-02-03 05:28:00,
2013-02-02 21:38:00,39.5,38.2,30.20,SE,131,0.0,1.0,95,0.00,,,0.00,0,Wunderground v.1.15,2013-02-03 05:38:00,
2013-02-02 21:43:00,39.5,38.2,30.20,SE,131,0.0,0.0,95,0.00,,,0.00,0,Wunderground v.1.15,2013-02-03 05:43:00,
2013-02-02 21:48:00,39.5,38.2,30.21,SE,131,0.0,0.0,95,0.00,,,0.00,0,Wunderground v.1.15,2013-02-03 05:48:00,
2013-02-02 21:58:00,39.6,38.3,30.21,SE,131,0.0,0.0,95,0.00,,,0.00,0,Wunderground v.1.15,2013-02-03 05:58:00,
2013-02-02 22:08:00,39.6,38.3,30.21,SSW,206,0.0,1.0,95,0.00,,,0.00,0,Wunderground v.1.15,2013-02-03 06:08:00,
2013-02-02 22:18:00,39.3,38.0,30.21,SSW,206,1.0,3.0,95,0.00,,,0.00,0,Wunderground v.1.15,2013-02-03 06:18:00,
2013-02-02 22:29:00,39.1,38.1,30.21,SSW,206,1.0,1.0,96,0.00,,,0.00,0,Wunderground v.1.15,2013-02-03 06:29:00,
2013-02-02 22:38:00,39.1,38.1,30.22,SSE,152,1.0,2.0,96,0.00,,,0.00,0,Wunderground v.1.15,2013-02-03 06:38:00,
2013-02-02 22:49:00,39.1,38.1,30.22,SSE,152,1.0,1.0,96,0.00,,,0.00,0,Wunderground v.1.15,2013-02-03 06:49:00,
2013-02-02 22:59:00,39.2,38.4,30.22,SE,134,1.0,1.0,97,0.00,,,0.00,0,Wunderground v.1.15,2013-02-03 06:59:00,
2013-02-02 23:09:00,39.5,38.7,30.22,SE,133,1.0,1.0,97,0.00,,,0.00,0,Wunderground v.1.15,2013-02-03 07:09:00,
2013-02-02 23:19:00,39.6,38.8,30.22,SE,131,1.0,1.0,97,0.00,,,0.00,0,Wunderground v.1.15,2013-02-03 07:19:00,
2013-02-02 23:29:00,39.6,38.8,30.22,SE,131,1.0,2.0,97,0.00,,,0.00,0,Wunderground v.1.15,2013-02-03 07:29:00,
2013-02-02 23:38:00,39.6,38.8,30.23,SE,131,1.0,1.0,97,0.00,,,0.00,0,Wunderground v.1.15,2013-02-03 07:38:00,
2013-02-02 23:48:00,39.8,39.0,30.24,SE,131,0.0,0.0,97,0.00,,,0.00,0,Wunderground v.1.15,2013-02-03 07:48:00,
2013-02-02 23:58:00,39.9,39.1,30.24,SE,131,1.0,1.0,97,0.00,,,0.00,0,Wunderground v.1.15,2013-02-03 07:58:00,